Time;durP1;ratioP1;P1;durP2;ratioP2;P2;SDS_P1;SDS_P2;PMS_P1;PMS_P2;Temp;Humidity;BMP_temperature;BMP_pressure;BME280_temperature;BME280_humidity;BME280_pressure;Samples;Min_cycle;Max_cycle;Signal;HPM_P1;HPM_P2
2022/01/10 00:02:44;;;;;;;20.67;7.03;;;;;;;;;;6186847;23;20701;-91
2022/01/10 00:05:50;;;;;;;19.07;6.97;;;;;;;;;;6189084;23;20163;-90
2022/01/10 00:08:55;;;;;;;13.10;5.37;;;;;;;;;;6186551;23;20183;-91
2022/01/10 00:12:00;;;;;;;21.37;6.27;;;;;;;;;;6187117;23;20236;-91
2022/01/10 00:18:43;;;;;;;9.03;4.57;;;;;;;;;;6185311;23;20172;-91
2022/01/10 00:21:50;;;;;;;15.73;4.47;;;;;;;;;;6203528;23;20183;-92
2022/01/10 00:24:55;;;;;;;13.93;4.93;;;;;;;;;;6184926;23;20198;-90
2022/01/10 00:28:01;;;;;;;10.67;4.33;;;;;;;;;;6184915;23;20160;-92
2022/01/10 00:31:07;;;;;;;9.00;4.13;;;;;;;;;;6185583;23;20168;-92
2022/01/10 00:34:13;;;;;;;8.37;3.67;;;;;;;;;;6185863;23;20240;-91
2022/01/10 00:37:20;;;;;;;12.33;4.30;;;;;;;;;;6185417;23;20222;-93
2022/01/10 00:40:26;;;;;;;9.23;3.90;;;;;;;;;;6183710;23;20267;-91
2022/01/10 00:43:33;;;;;;;18.07;4.30;;;;;;;;;;6185609;23;20191;-91
2022/01/10 00:46:38;;;;;;;15.77;3.83;;;;;;;;;;6188382;23;20179;-91
2022/01/10 00:49:43;;;;;;;10.30;4.07;;;;;;;;;;6185388;23;20191;-90
2022/01/10 00:52:50;;;;;;;13.53;3.97;;;;;;;;;;6186336;23;20191;-91
2022/01/10 00:55:55;;;;;;;6.53;3.13;;;;;;;;;;6185674;23;20478;-91
2022/01/10 00:59:00;;;;;;;14.33;4.40;;;;;;;;;;6186185;23;20171;-91
2022/01/10 01:02:06;;;;;;;15.57;4.60;;;;;;;;;;6187454;23;20172;-91
2022/01/10 01:05:13;;;;;;;12.47;4.67;;;;;;;;;;6186629;23;20204;-92
2022/01/10 01:08:20;;;;;;;10.07;4.03;;;;;;;;;;6185859;23;20167;-90
2022/01/10 01:15:07;;;;;;;9.43;4.17;;;;;;;;;;6184905;23;20357;-90
2022/01/10 01:18:19;;;;;;;9.93;4.00;;;;;;;;;;6186164;23;20220;-90
2022/01/10 01:24:48;;;;;;;13.13;4.73;;;;;;;;;;6186993;23;20187;-90
2022/01/10 01:27:55;;;;;;;10.07;4.00;;;;;;;;;;6185911;23;20171;-90
2022/01/10 01:31:00;;;;;;;14.30;4.40;;;;;;;;;;6186618;23;20171;-89
2022/01/10 01:34:05;;;;;;;11.23;4.33;;;;;;;;;;6185763;23;20234;-90
2022/01/10 01:37:11;;;;;;;10.13;4.77;;;;;;;;;;6187849;23;20244;-90
2022/01/10 01:40:20;;;;;;;13.27;4.37;;;;;;;;;;6188129;23;20171;-90
2022/01/10 01:43:30;;;;;;;7.73;3.53;;;;;;;;;;6186853;23;20183;-89
2022/01/10 01:46:35;;;;;;;10.37;4.33;;;;;;;;;;6186421;23;20168;-91
2022/01/10 01:49:41;;;;;;;9.17;3.63;;;;;;;;;;6185903;23;20152;-90
2022/01/10 01:52:47;;;;;;;11.23;3.93;;;;;;;;;;6184650;23;20188;-91
2022/01/10 01:55:53;;;;;;;10.53;3.40;;;;;;;;;;6188441;23;20655;-91
2022/01/10 01:58:59;;;;;;;7.80;3.30;;;;;;;;;;6188593;23;20315;-92
2022/01/10 02:02:04;;;;;;;8.83;3.60;;;;;;;;;;6188145;23;20159;-90
2022/01/10 02:05:13;;;;;;;12.73;3.73;;;;;;;;;;6207064;23;20228;-91
2022/01/10 02:08:19;;;;;;;8.00;3.60;;;;;;;;;;6188622;23;20159;-91
2022/01/10 02:11:30;;;;;;;13.27;3.83;;;;;;;;;;6189909;23;20175;-91
2022/01/10 02:14:48;;;;;;;9.07;4.13;;;;;;;;;;6207317;23;20216;-92
2022/01/10 02:17:59;;;;;;;7.43;3.50;;;;;;;;;;6187980;23;20180;-92
2022/01/10 02:21:09;;;;;;;6.07;3.23;;;;;;;;;;6188201;23;20212;-91
2022/01/10 02:24:14;;;;;;;12.23;3.80;;;;;;;;;;6185547;23;20187;-91
2022/01/10 02:27:23;;;;;;;10.97;3.83;;;;;;;;;;6187055;23;20152;-91
2022/01/10 02:30:28;;;;;;;6.43;3.40;;;;;;;;;;6188412;23;20240;-91
2022/01/10 02:33:34;;;;;;;7.83;3.50;;;;;;;;;;6187025;23;20175;-91
2022/01/10 02:36:47;;;;;;;9.70;3.90;;;;;;;;;;6187598;23;20171;-91
2022/01/10 02:39:54;;;;;;;12.50;4.27;;;;;;;;;;6186349;23;20211;-90
2022/01/10 02:42:59;;;;;;;11.23;4.30;;;;;;;;;;6187592;23;20168;-90
2022/01/10 02:46:05;;;;;;;8.40;3.87;;;;;;;;;;6185967;23;20179;-91
2022/01/10 02:49:14;;;;;;;9.27;4.13;;;;;;;;;;6187913;23;20191;-90
2022/01/10 02:52:25;;;;;;;8.53;4.07;;;;;;;;;;6186644;23;20167;-90
2022/01/10 02:55:34;;;;;;;15.33;4.10;;;;;;;;;;6187496;23;20214;-90
2022/01/10 02:58:39;;;;;;;8.80;3.90;;;;;;;;;;6186860;23;20509;-91
2022/01/10 03:01:45;;;;;;;9.47;4.40;;;;;;;;;;6189088;23;20163;-91
2022/01/10 03:04:50;;;;;;;8.43;4.37;;;;;;;;;;6186088;23;20191;-90
2022/01/10 03:07:59;;;;;;;7.27;3.87;;;;;;;;;;6186819;23;20176;-91
2022/01/10 03:11:06;;;;;;;8.17;4.00;;;;;;;;;;6185657;23;20171;-91
2022/01/10 03:14:12;;;;;;;10.20;4.20;;;;;;;;;;6183369;23;20172;-91
2022/01/10 03:17:17;;;;;;;9.17;4.70;;;;;;;;;;6186501;23;20171;-91
2022/01/10 03:20:24;;;;;;;10.10;4.30;;;;;;;;;;6186497;23;20195;-92
2022/01/10 03:23:31;;;;;;;11.37;5.10;;;;;;;;;;6184761;23;20196;-91
2022/01/10 03:26:38;;;;;;;12.77;4.67;;;;;;;;;;6184274;23;20172;-91
2022/01/10 03:29:44;;;;;;;10.23;4.80;;;;;;;;;;6184512;23;20171;-91
2022/01/10 03:32:51;;;;;;;13.33;4.53;;;;;;;;;;6185121;23;20144;-91
2022/01/10 03:36:07;;;;;;;9.93;4.83;;;;;;;;;;6186816;23;20172;-90
2022/01/10 03:39:16;;;;;;;10.30;4.70;;;;;;;;;;6184312;23;20236;-90
2022/01/10 03:42:22;;;;;;;10.27;4.20;;;;;;;;;;6183999;23;20163;-92
2022/01/10 03:45:29;;;;;;;11.27;4.90;;;;;;;;;;6184001;23;20199;-91
2022/01/10 03:48:34;;;;;;;9.47;4.50;;;;;;;;;;6184754;23;20524;-91
2022/01/10 03:51:39;;;;;;;9.70;4.53;;;;;;;;;;6183326;23;20167;-91
2022/01/10 03:54:47;;;;;;;11.10;5.10;;;;;;;;;;6186626;23;20503;-88
2022/01/10 03:57:53;;;;;;;10.93;4.87;;;;;;;;;;6184463;23;20230;-90
2022/01/10 04:01:00;;;;;;;15.70;5.30;;;;;;;;;;6185800;23;20212;-91
2022/01/10 04:04:09;;;;;;;9.53;5.17;;;;;;;;;;6203242;23;20211;-90
2022/01/10 04:07:16;;;;;;;13.07;5.23;;;;;;;;;;6185583;23;20167;-90
2022/01/10 04:10:23;;;;;;;10.83;5.40;;;;;;;;;;6186731;23;20237;-90
2022/01/10 04:13:49;;;;;;;10.93;5.50;;;;;;;;;;6184181;23;20874;-90
2022/01/10 04:16:55;;;;;;;13.30;5.23;;;;;;;;;;6186746;23;20168;-90
2022/01/10 04:20:00;;;;;;;12.43;5.20;;;;;;;;;;6185686;23;20237;-90
2022/01/10 04:23:05;;;;;;;11.23;5.20;;;;;;;;;;6186739;23;20168;-90
2022/01/10 04:26:12;;;;;;;14.43;5.47;;;;;;;;;;6185550;23;20204;-90
2022/01/10 04:29:17;;;;;;;19.87;6.67;;;;;;;;;;6186368;23;20168;-90
2022/01/10 04:32:23;;;;;;;10.43;5.47;;;;;;;;;;6185605;23;20187;-90
2022/01/10 04:35:31;;;;;;;12.53;5.00;;;;;;;;;;6185147;23;20180;-91
2022/01/10 04:38:37;;;;;;;10.20;4.93;;;;;;;;;;6187337;23;20180;-91
2022/01/10 04:41:44;;;;;;;11.07;5.67;;;;;;;;;;6185886;23;20233;-91
2022/01/10 04:44:50;;;;;;;19.30;5.73;;;;;;;;;;6183096;23;20195;-90
2022/01/10 04:47:57;;;;;;;11.60;5.63;;;;;;;;;;6185411;23;20171;-90
2022/01/10 04:51:16;;;;;;;13.43;5.37;;;;;;;;;;6185636;23;20241;-90
2022/01/10 04:54:32;;;;;;;11.70;5.50;;;;;;;;;;6185003;23;20272;-90
2022/01/10 04:57:39;;;;;;;12.57;4.93;;;;;;;;;;6185850;23;20195;-91
2022/01/10 05:04:35;;;;;;;11.43;5.07;;;;;;;;;;6186743;23;20176;-91
2022/01/10 05:07:41;;;;;;;13.97;5.23;;;;;;;;;;6186478;23;20168;-90
2022/01/10 05:10:48;;;;;;;9.93;5.17;;;;;;;;;;6185919;23;20527;-90
2022/01/10 05:13:55;;;;;;;11.27;5.30;;;;;;;;;;6187478;23;20163;-90
2022/01/10 05:17:00;;;;;;;10.87;5.43;;;;;;;;;;6186493;23;20192;-90
2022/01/10 05:20:06;;;;;;;15.47;6.50;;;;;;;;;;6187875;23;20184;-91
2022/01/10 05:23:11;;;;;;;14.40;5.87;;;;;;;;;;6185467;23;20192;-89
2022/01/10 05:26:16;;;;;;;16.27;6.00;;;;;;;;;;6185159;23;20297;-89
2022/01/10 05:29:24;;;;;;;13.77;6.30;;;;;;;;;;6187347;23;20623;-89
2022/01/10 05:32:29;;;;;;;17.00;6.33;;;;;;;;;;6187151;23;20168;-89
2022/01/10 05:35:57;;;;;;;16.67;6.40;;;;;;;;;;6203802;23;20167;-89
2022/01/10 05:39:03;;;;;;;12.70;6.23;;;;;;;;;;6186848;23;20172;-89
2022/01/10 05:42:08;;;;;;;14.50;6.17;;;;;;;;;;6187589;23;20172;-90
2022/01/10 05:45:15;;;;;;;13.93;6.10;;;;;;;;;;6187810;23;20191;-90
2022/01/10 05:48:28;;;;;;;13.87;6.20;;;;;;;;;;6186061;23;20160;-90
2022/01/10 05:51:38;;;;;;;15.43;6.77;;;;;;;;;;6185698;23;20192;-90
2022/01/10 05:55:04;;;;;;;11.93;5.93;;;;;;;;;;6204623;23;20168;-90
2022/01/10 05:58:09;;;;;;;16.93;6.70;;;;;;;;;;6187742;23;20187;-90
2022/01/10 06:01:18;;;;;;;15.93;7.43;;;;;;;;;;6185924;23;20225;-92
2022/01/10 06:04:30;;;;;;;13.17;6.60;;;;;;;;;;6185601;23;20168;-91
2022/01/10 06:10:35;;;;;;;13.27;6.80;;;;;;;;;;6171360;22;20412;-90
2022/01/10 06:14:27;;;;;;;12.50;7.03;;;;;;;;;;6175078;23;20168;-90
2022/01/10 06:17:34;;;;;;;15.20;6.93;;;;;;;;;;6206043;23;20729;-90
2022/01/10 06:20:39;;;;;;;17.50;6.80;;;;;;;;;;6221172;23;20166;-90
2022/01/10 06:23:45;;;;;;;17.50;7.37;;;;;;;;;;6217768;23;20247;-90
2022/01/10 06:26:51;;;;;;;15.00;7.20;;;;;;;;;;6216918;23;20662;-92
2022/01/10 06:29:58;;;;;;;19.57;6.90;;;;;;;;;;6217460;23;20158;-90
2022/01/10 06:33:06;;;;;;;18.00;6.83;;;;;;;;;;6216141;23;20170;-90
2022/01/10 06:39:35;;;;;;;16.87;6.77;;;;;;;;;;6218132;23;20202;-91
2022/01/10 06:42:41;;;;;;;17.87;6.83;;;;;;;;;;6217916;23;20262;-89
2022/01/10 06:45:48;;;;;;;17.00;7.23;;;;;;;;;;6217663;23;20195;-91
2022/01/10 06:49:03;;;;;;;18.00;8.40;;;;;;;;;;6218047;23;20238;-91
2022/01/10 06:52:10;;;;;;;19.03;7.90;;;;;;;;;;6217553;23;20163;-91
2022/01/10 06:55:17;;;;;;;20.30;8.53;;;;;;;;;;6216421;23;20207;-91
2022/01/10 06:58:23;;;;;;;21.43;8.57;;;;;;;;;;6215619;23;20214;-92
2022/01/10 07:01:29;;;;;;;17.73;8.93;;;;;;;;;;6216623;23;20163;-90
2022/01/10 07:04:39;;;;;;;22.03;10.03;;;;;;;;;;6218915;23;20159;-92
2022/01/10 07:07:47;;;;;;;23.43;10.50;;;;;;;;;;6219488;23;20222;-91
2022/01/10 07:11:13;;;;;;;25.17;10.77;;;;;;;;;;6237111;23;20155;-89
2022/01/10 07:14:28;;;;;;;33.30;12.67;;;;;;;;;;6221544;23;20151;-90
2022/01/10 07:17:37;;;;;;;45.00;13.33;;;;;;;;;;6236213;23;20215;-91
2022/01/10 07:20:47;;;;;;;32.53;12.67;;;;;;;;;;6219453;23;20163;-90
2022/01/10 07:23:53;;;;;;;181.43;53.57;;;;;;;;;;6218877;23;20163;-91
2022/01/10 07:26:59;;;;;;;42.10;17.20;;;;;;;;;;6219491;23;20206;-91
2022/01/10 07:30:05;;;;;;;121.40;37.20;;;;;;;;;;6220232;23;20215;-90
2022/01/10 08:11:44;;;;;;;36.00;16.17;;;;;;;;;;6175628;22;20398;31
2022/01/10 12:04:58;;;;;;;26.97;12.37;;;;;;;;;;6184020;22;20195;31
2022/01/10 12:08:08;;;;;;;21.93;10.40;;;;;;;;;;6130265;23;20165;-90
2022/01/10 12:11:17;;;;;;;25.60;12.20;;;;;;;;;;6130912;23;20164;-91
2022/01/10 12:14:23;;;;;;;22.67;11.20;;;;;;;;;;6129995;23;20218;-91
2022/01/10 12:17:31;;;;;;;26.33;12.53;;;;;;;;;;6146364;23;20233;-91
2022/01/10 12:20:38;;;;;;;27.53;11.57;;;;;;;;;;6127690;23;20645;-91
2022/01/10 12:23:45;;;;;;;27.30;12.40;;;;;;;;;;6124871;23;20172;-91
2022/01/10 12:26:50;;;;;;;24.23;11.87;;;;;;;;;;6123411;23;20201;-90
2022/01/10 12:29:56;;;;;;;27.77;12.60;;;;;;;;;;6123900;23;20219;-92
2022/01/10 12:33:04;;;;;;;27.40;12.73;;;;;;;;;;6124658;23;20182;-91
2022/01/10 12:36:09;;;;;;;27.77;13.10;;;;;;;;;;6124882;23;20609;-90
2022/01/10 12:39:20;;;;;;;26.93;12.37;;;;;;;;;;6127638;23;20169;-90
2022/01/10 12:42:27;;;;;;;26.67;11.90;;;;;;;;;;6126554;23;20173;-89
2022/01/10 12:45:36;;;;;;;33.40;13.97;;;;;;;;;;6127214;23;20509;-90
2022/01/10 12:48:46;;;;;;;31.50;13.03;;;;;;;;;;6128394;23;20172;-90
2022/01/10 12:51:52;;;;;;;27.17;12.73;;;;;;;;;;6128641;23;20174;-91
2022/01/10 12:54:58;;;;;;;31.10;13.80;;;;;;;;;;6129020;23;20168;-91
2022/01/10 12:58:06;;;;;;;26.70;12.73;;;;;;;;;;6131669;23;20213;-90
2022/01/10 13:01:12;;;;;;;31.97;12.30;;;;;;;;;;6127684;23;20154;-91
2022/01/10 13:04:22;;;;;;;31.33;13.00;;;;;;;;;;6125993;23;20686;-90
2022/01/10 13:07:31;;;;;;;30.03;12.43;;;;;;;;;;6162222;23;20218;-89
2022/01/10 13:17:56;;;;;;;28.37;12.37;;;;;;;;;;6181290;23;20148;-92
2022/01/10 14:57:51;;;;;;;23.67;10.63;;;;;;;;;;6168382;22;20199;-92
2022/01/10 15:00:56;;;;;;;22.27;9.47;;;;;;;;;;6213193;23;20167;-90
2022/01/10 15:04:02;;;;;;;26.63;11.37;;;;;;;;;;6212615;23;20168;-90
2022/01/10 15:07:07;;;;;;;24.70;10.97;;;;;;;;;;6212997;23;20190;-91
2022/01/10 15:10:13;;;;;;;29.57;11.70;;;;;;;;;;6215736;23;20208;-92
2022/01/10 15:13:21;;;;;;;27.93;10.93;;;;;;;;;;6216305;23;20171;-92
2022/01/10 15:16:32;;;;;;;27.97;10.53;;;;;;;;;;6215061;23;20175;-92
2022/01/10 15:19:39;;;;;;;29.47;10.63;;;;;;;;;;6215215;23;20212;-92
2022/01/10 15:26:33;;;;;;;24.47;11.33;;;;;;;;;;6216761;23;20195;-92
2022/01/10 15:29:48;;;;;;;23.60;11.73;;;;;;;;;;6217690;23;20162;-92
2022/01/10 15:32:53;;;;;;;24.43;10.73;;;;;;;;;;6217377;23;20167;-93
2022/01/10 15:35:59;;;;;;;30.60;11.03;;;;;;;;;;6217091;23;20164;-92
2022/01/10 15:39:05;;;;;;;24.53;11.30;;;;;;;;;;6215784;23;20302;-92
2022/01/10 15:42:14;;;;;;;28.37;11.53;;;;;;;;;;6218025;23;20171;-92
2022/01/10 15:45:22;;;;;;;31.00;12.33;;;;;;;;;;6215901;23;20232;-92
2022/01/10 15:48:29;;;;;;;28.37;11.90;;;;;;;;;;6217617;23;20239;-92
2022/01/10 15:51:37;;;;;;;30.33;12.40;;;;;;;;;;6215798;23;20171;-93
2022/01/10 15:54:43;;;;;;;25.20;11.33;;;;;;;;;;6216021;23;20167;-92
2022/01/10 15:57:50;;;;;;;27.10;11.10;;;;;;;;;;6215488;23;20179;-91
2022/01/10 16:00:59;;;;;;;30.73;11.73;;;;;;;;;;6217372;23;20174;-90
2022/01/10 16:04:06;;;;;;;25.80;11.77;;;;;;;;;;6218684;23;20176;-90
2022/01/10 16:07:15;;;;;;;27.23;11.73;;;;;;;;;;6218979;23;20194;-90
2022/01/10 16:10:21;;;;;;;30.70;12.57;;;;;;;;;;6218296;23;20187;-91
2022/01/10 16:13:28;;;;;;;37.37;13.67;;;;;;;;;;6218597;23;20178;-91
2022/01/10 16:16:43;;;;;;;29.93;12.23;;;;;;;;;;6218631;23;20155;-91
2022/01/10 16:19:51;;;;;;;36.57;16.70;;;;;;;;;;6218780;23;20577;-91
2022/01/10 16:22:56;;;;;;;27.97;11.20;;;;;;;;;;6219105;23;20214;-91
2022/01/10 16:26:02;;;;;;;24.40;11.03;;;;;;;;;;6219274;23;20218;-91
2022/01/10 16:29:10;;;;;;;31.97;11.80;;;;;;;;;;6218858;23;20198;-91
2022/01/10 16:32:17;;;;;;;25.50;11.30;;;;;;;;;;6221128;23;20207;-91
2022/01/10 16:35:23;;;;;;;31.93;12.83;;;;;;;;;;6218846;23;20172;-92
2022/01/10 16:38:34;;;;;;;29.90;10.97;;;;;;;;;;6218651;23;20214;-92
2022/01/10 16:41:46;;;;;;;32.43;10.33;;;;;;;;;;6219564;23;20231;-92
2022/01/10 16:48:14;;;;;;;34.97;10.93;;;;;;;;;;6219994;23;20264;-93
2022/01/10 16:51:21;;;;;;;33.60;10.90;;;;;;;;;;6220699;23;20243;-91
2022/01/10 16:54:26;;;;;;;24.53;10.30;;;;;;;;;;6219364;23;20232;-89
2022/01/10 16:57:32;;;;;;;30.60;11.50;;;;;;;;;;6217251;23;20175;-91
2022/01/10 17:00:37;;;;;;;26.83;10.77;;;;;;;;;;6216973;23;20198;-91
2022/01/10 17:03:45;;;;;;;27.23;11.10;;;;;;;;;;6220472;23;20219;-92
2022/01/10 17:06:51;;;;;;;27.77;11.63;;;;;;;;;;6218684;23;20210;-93
2022/01/10 17:09:57;;;;;;;30.27;11.77;;;;;;;;;;6216429;23;20230;-91
2022/01/10 17:13:02;;;;;;;34.03;11.63;;;;;;;;;;6219266;23;20171;-91
2022/01/10 17:16:09;;;;;;;36.77;11.90;;;;;;;;;;6217507;23;20231;-91
2022/01/10 17:19:19;;;;;;;32.87;11.67;;;;;;;;;;6220054;23;20171;-91
2022/01/10 17:22:25;;;;;;;28.70;11.50;;;;;;;;;;6217522;23;20175;-92
2022/01/10 17:25:40;;;;;;;25.10;10.93;;;;;;;;;;6218078;23;20167;-92
2022/01/10 17:28:46;;;;;;;23.00;10.27;;;;;;;;;;6219644;23;20184;-92
2022/01/10 17:31:52;;;;;;;22.27;10.13;;;;;;;;;;6217280;23;20167;-92
2022/01/10 17:34:59;;;;;;;25.93;11.23;;;;;;;;;;6216768;23;20216;-91
2022/01/10 17:38:04;;;;;;;24.17;10.67;;;;;;;;;;6219368;23;20159;-93
2022/01/10 17:41:09;;;;;;;29.73;12.00;;;;;;;;;;6218227;23;20191;-92
2022/01/10 17:44:14;;;;;;;24.07;10.93;;;;;;;;;;6218290;23;20167;-91
2022/01/10 17:47:21;;;;;;;30.97;13.30;;;;;;;;;;6220243;23;20186;-91
2022/01/10 17:50:33;;;;;;;38.43;15.23;;;;;;;;;;6219843;23;20179;-91
2022/01/10 17:53:38;;;;;;;42.07;16.80;;;;;;;;;;6220307;23;20195;-91
2022/01/10 17:56:44;;;;;;;33.30;13.30;;;;;;;;;;6220337;23;20591;-91
2022/01/10 18:00:00;;;;;;;32.10;13.70;;;;;;;;;;6220510;23;20179;-91
2022/01/10 18:03:06;;;;;;;31.77;12.37;;;;;;;;;;6219917;23;20195;-91
2022/01/10 18:06:13;;;;;;;28.80;11.63;;;;;;;;;;6220759;23;20206;-90
2022/01/10 18:09:18;;;;;;;34.80;13.43;;;;;;;;;;6220398;23;20238;-90
2022/01/10 18:12:23;;;;;;;58.57;18.33;;;;;;;;;;6217872;23;20171;-91
2022/01/10 18:15:29;;;;;;;36.10;13.90;;;;;;;;;;6217974;23;20253;-92
2022/01/10 18:18:34;;;;;;;32.97;14.60;;;;;;;;;;6216335;23;20211;-91
2022/01/10 18:21:41;;;;;;;33.70;14.07;;;;;;;;;;6217967;23;20183;-92
2022/01/10 18:24:47;;;;;;;42.00;16.20;;;;;;;;;;6219387;23;20170;-91
2022/01/10 18:27:54;;;;;;;36.93;14.97;;;;;;;;;;6219058;23;20513;-91
2022/01/10 18:31:05;;;;;;;54.93;18.13;;;;;;;;;;6219406;23;20167;-91
2022/01/10 18:34:11;;;;;;;33.77;14.43;;;;;;;;;;6218481;23;20224;-91
2022/01/10 18:37:19;;;;;;;38.57;15.67;;;;;;;;;;6218413;23;20179;-91
2022/01/10 18:40:25;;;;;;;33.23;15.53;;;;;;;;;;6217376;23;20151;-91
2022/01/10 18:43:33;;;;;;;31.13;13.37;;;;;;;;;;6217859;23;20223;-90
2022/01/10 18:46:40;;;;;;;33.70;13.47;;;;;;;;;;6216851;23;20187;-89
2022/01/10 18:49:45;;;;;;;32.47;15.00;;;;;;;;;;6217655;23;20178;-90
2022/01/10 18:52:53;;;;;;;35.67;14.87;;;;;;;;;;6218647;23;20207;-90
2022/01/10 18:55:58;;;;;;;42.03;16.47;;;;;;;;;;6217284;23;20195;-90
2022/01/10 18:59:06;;;;;;;38.70;15.43;;;;;;;;;;6218762;23;20178;-92
2022/01/10 19:02:11;;;;;;;42.47;16.97;;;;;;;;;;6219392;23;20219;-92
2022/01/10 19:05:20;;;;;;;38.50;17.83;;;;;;;;;;6218427;23;20151;-93
2022/01/10 19:08:27;;;;;;;42.97;17.17;;;;;;;;;;6220713;23;20178;-91
2022/01/10 19:11:33;;;;;;;37.77;16.00;;;;;;;;;;6219620;23;20250;-91
2022/01/10 19:14:39;;;;;;;35.57;15.83;;;;;;;;;;6218836;23;20166;-91
2022/01/10 19:17:46;;;;;;;37.43;15.03;;;;;;;;;;6218784;23;20162;-91
2022/01/10 19:20:51;;;;;;;34.77;16.17;;;;;;;;;;6217696;23;20191;-92
2022/01/10 19:23:59;;;;;;;35.73;14.93;;;;;;;;;;6218840;23;20178;-92
2022/01/10 19:27:05;;;;;;;38.83;14.77;;;;;;;;;;6218013;23;20194;-91
2022/01/10 19:30:12;;;;;;;41.07;16.03;;;;;;;;;;6218565;23;20167;-92
2022/01/10 19:33:17;;;;;;;44.13;20.80;;;;;;;;;;6218686;23;20170;-91
2022/01/10 19:36:24;;;;;;;39.13;16.47;;;;;;;;;;6216956;23;20171;-91
2022/01/10 19:39:33;;;;;;;32.53;14.67;;;;;;;;;;6219054;23;20190;-91
2022/01/10 19:42:38;;;;;;;38.63;15.03;;;;;;;;;;6217183;23;20171;-92
2022/01/10 19:45:44;;;;;;;35.87;16.07;;;;;;;;;;6218087;23;20216;-89
2022/01/10 19:48:52;;;;;;;35.53;16.53;;;;;;;;;;6223378;23;20240;-92
2022/01/10 19:51:58;;;;;;;38.00;15.77;;;;;;;;;;6218992;23;20171;-91
2022/01/10 19:55:09;;;;;;;37.80;15.47;;;;;;;;;;6222164;23;20156;-92
2022/01/10 19:58:15;;;;;;;37.57;16.00;;;;;;;;;;6223662;23;20211;-92
2022/01/10 20:01:24;;;;;;;40.67;16.27;;;;;;;;;;6219044;23;20167;-92
2022/01/10 20:04:30;;;;;;;42.17;17.87;;;;;;;;;;6219001;23;20214;-90
2022/01/10 20:07:35;;;;;;;42.50;17.10;;;;;;;;;;6220702;23;20195;-93
2022/01/10 20:10:44;;;;;;;40.30;17.93;;;;;;;;;;6219796;23;20154;-92
2022/01/10 20:13:51;;;;;;;42.03;18.50;;;;;;;;;;6218136;23;20171;-93
2022/01/10 20:17:03;;;;;;;41.47;18.70;;;;;;;;;;6220923;23;20218;-93
2022/01/10 20:20:10;;;;;;;39.97;17.23;;;;;;;;;;6219698;23;20244;-92
2022/01/10 20:23:20;;;;;;;38.93;17.40;;;;;;;;;;6220155;23;20166;-92
2022/01/10 20:26:27;;;;;;;40.13;16.63;;;;;;;;;;6221697;23;20167;-92
2022/01/10 20:29:35;;;;;;;43.60;18.03;;;;;;;;;;6221439;23;20171;-91
2022/01/10 20:32:40;;;;;;;38.73;16.83;;;;;;;;;;6221037;23;20183;-91
2022/01/10 20:35:46;;;;;;;48.50;19.10;;;;;;;;;;6219788;23;20191;-92
2022/01/10 20:38:52;;;;;;;44.97;20.03;;;;;;;;;;6222267;23;20233;-92
2022/01/10 20:41:59;;;;;;;37.60;17.93;;;;;;;;;;6221674;23;20175;-91
2022/01/10 20:56:48;;;;;;;46.07;18.90;;;;;;;;;;6207500;22;20847;-93
2022/01/10 20:59:57;;;;;;;42.90;17.30;;;;;;;;;;6220867;23;20246;-90
2022/01/10 21:03:02;;;;;;;45.17;19.10;;;;;;;;;;6219845;23;20559;-90
2022/01/10 21:06:09;;;;;;;51.93;21.97;;;;;;;;;;6220077;23;20171;-90
2022/01/10 21:09:17;;;;;;;52.10;21.23;;;;;;;;;;6218438;23;20186;-92
2022/01/10 21:12:23;;;;;;;59.23;22.70;;;;;;;;;;6219914;23;20251;-91
2022/01/10 21:15:33;;;;;;;42.73;16.97;;;;;;;;;;6221079;23;20166;-90
2022/01/10 21:18:38;;;;;;;47.53;18.83;;;;;;;;;;6219462;23;20199;-90
2022/01/10 21:21:44;;;;;;;51.37;20.87;;;;;;;;;;6218996;23;20163;-91
2022/01/10 21:24:58;;;;;;;41.67;16.67;;;;;;;;;;6219468;23;20171;-91
2022/01/10 21:28:04;;;;;;;43.67;17.87;;;;;;;;;;6219154;23;20218;-91
2022/01/10 21:31:11;;;;;;;42.00;18.27;;;;;;;;;;6220131;23;20158;-90
2022/01/10 21:34:18;;;;;;;33.60;15.57;;;;;;;;;;6217187;23;20171;-90
2022/01/10 21:37:25;;;;;;;37.80;16.20;;;;;;;;;;6218939;23;20154;-91
2022/01/10 22:06:57;;;;;;;46.17;18.80;;;;;;;;;;6221274;22;20199;-90
2022/01/10 22:10:04;;;;;;;39.13;15.53;;;;;;;;;;6220565;23;20170;-90
2022/01/10 22:13:14;;;;;;;34.67;14.93;;;;;;;;;;6237730;23;21015;-90
2022/01/10 22:16:20;;;;;;;32.93;13.53;;;;;;;;;;6220288;23;20175;-90
2022/01/10 22:19:25;;;;;;;29.10;12.60;;;;;;;;;;6221182;23;20158;-90
2022/01/10 22:22:39;;;;;;;29.47;12.97;;;;;;;;;;6240668;23;20163;-92
2022/01/10 22:25:44;;;;;;;29.43;12.53;;;;;;;;;;6218266;23;20218;-91
2022/01/10 22:28:52;;;;;;;32.47;14.20;;;;;;;;;;6218931;23;20201;-92
2022/01/10 22:31:57;;;;;;;29.13;13.20;;;;;;;;;;6218361;23;20175;-90
2022/01/10 22:35:03;;;;;;;31.60;14.70;;;;;;;;;;6218202;23;20190;-90
2022/01/10 22:38:11;;;;;;;33.13;14.17;;;;;;;;;;6218033;23;20175;-91
2022/01/10 22:41:17;;;;;;;31.30;12.97;;;;;;;;;;6217966;23;20175;-92
2022/01/10 22:44:22;;;;;;;28.13;12.03;;;;;;;;;;6219844;23;20147;-92
2022/01/10 22:47:38;;;;;;;29.17;12.23;;;;;;;;;;6218130;23;20166;-91
2022/01/10 22:50:44;;;;;;;26.90;12.33;;;;;;;;;;6218331;23;20167;-91
2022/01/10 22:53:50;;;;;;;29.03;13.47;;;;;;;;;;6216436;23;20171;-91
2022/01/10 22:56:55;;;;;;;32.60;13.57;;;;;;;;;;6217812;23;20222;-91
2022/01/10 23:00:01;;;;;;;29.27;12.13;;;;;;;;;;6218697;23;20179;-91
2022/01/10 23:06:58;;;;;;;27.43;12.57;;;;;;;;;;6215065;23;20191;-91
2022/01/10 23:10:07;;;;;;;30.80;13.33;;;;;;;;;;6215458;23;20175;-91
2022/01/10 23:13:13;;;;;;;26.93;12.23;;;;;;;;;;6216694;23;20163;-90
2022/01/10 23:16:20;;;;;;;26.20;11.83;;;;;;;;;;6214138;23;20163;-90
2022/01/10 23:19:27;;;;;;;30.40;12.27;;;;;;;;;;6215053;23;20178;-91
2022/01/10 23:22:32;;;;;;;29.10;11.60;;;;;;;;;;6216244;23;20168;-89
2022/01/10 23:25:39;;;;;;;29.37;12.70;;;;;;;;;;6216292;23;20250;-90
2022/01/10 23:28:44;;;;;;;31.70;12.90;;;;;;;;;;6218241;23;20183;-91
2022/01/10 23:31:48;;;;;;;32.47;13.43;;;;;;;;;;6215743;23;20195;-91
2022/01/10 23:34:54;;;;;;;30.03;13.30;;;;;;;;;;6215909;23;20220;-89
2022/01/10 23:37:59;;;;;;;29.63;12.83;;;;;;;;;;6217716;23;20167;-93
2022/01/10 23:41:08;;;;;;;23.40;12.20;;;;;;;;;;6216293;23;20171;-91
2022/01/10 23:44:14;;;;;;;25.47;10.60;;;;;;;;;;6217499;23;20687;-91
2022/01/10 23:47:21;;;;;;;23.13;10.30;;;;;;;;;;6217363;23;20163;-91
2022/01/10 23:50:31;;;;;;;24.77;11.63;;;;;;;;;;6215094;23;20215;-91
2022/01/10 23:53:37;;;;;;;23.87;11.57;;;;;;;;;;6212807;23;20492;-92
2022/01/10 23:56:45;;;;;;;27.83;11.27;;;;;;;;;;6214216;23;20211;-91
2022/01/10 23:59:50;;;;;;;29.13;12.53;;;;;;;;;;6212831;23;20190;-91
